createdAt,value
2018-07-23T00:00:21.254Z,0
2018-07-23T00:00:47.426Z,0
2018-07-23T00:01:13.563Z,0
2018-07-23T00:01:39.720Z,0
2018-07-23T00:02:05.893Z,0
2018-07-23T00:02:32.016Z,0
2018-07-23T00:02:58.178Z,0
2018-07-23T00:03:24.328Z,0
2018-07-23T00:03:50.511Z,0
2018-07-23T00:04:16.671Z,0
2018-07-23T00:04:42.849Z,0
2018-07-23T00:05:09.024Z,0
2018-07-23T00:05:35.184Z,0
2018-07-23T00:06:01.323Z,0
2018-07-23T00:06:27.497Z,0
2018-07-23T00:06:53.657Z,0
2018-07-23T00:07:19.812Z,0
2018-07-23T00:07:45.961Z,0
2018-07-23T00:08:12.105Z,0
2018-07-23T00:08:38.257Z,0
2018-07-23T00:09:04.399Z,0
2018-07-23T00:09:30.570Z,0
2018-07-23T00:09:56.706Z,0
2018-07-23T00:10:22.846Z,0
2018-07-23T00:10:49.006Z,0
2018-07-23T00:11:15.147Z,0
2018-07-23T00:11:41.284Z,0
2018-07-23T00:12:07.421Z,0
2018-07-23T00:12:33.562Z,0
2018-07-23T00:12:59.698Z,0
2018-07-23T00:13:25.833Z,0
2018-07-23T00:13:52.093Z,0
2018-07-23T00:14:19.065Z,0
2018-07-23T00:14:45.206Z,0
2018-07-23T00:15:11.341Z,0
2018-07-23T00:15:37.482Z,0
2018-07-23T00:16:03.645Z,0
2018-07-23T00:16:29.794Z,0
2018-07-23T00:16:55.969Z,0
2018-07-23T00:17:22.112Z,0
2018-07-23T00:17:48.245Z,0
2018-07-23T00:18:14.384Z,0
2018-07-23T00:18:40.524Z,0
2018-07-23T00:19:06.663Z,0
2018-07-23T00:19:32.798Z,0
2018-07-23T00:19:58.952Z,0
2018-07-23T00:20:25.087Z,0
2018-07-23T00:20:51.265Z,0
2018-07-23T00:21:17.407Z,0
2018-07-23T00:21:43.565Z,0
2018-07-23T00:22:09.702Z,0
2018-07-23T00:22:35.840Z,0
2018-07-23T00:23:02.000Z,0
2018-07-23T00:23:28.136Z,0
2018-07-23T00:23:54.294Z,0
2018-07-23T00:24:20.460Z,0
2018-07-23T00:24:46.601Z,0
2018-07-23T00:25:12.745Z,0
2018-07-23T00:25:38.904Z,0
2018-07-23T00:26:05.039Z,0
2018-07-23T00:26:31.180Z,0
2018-07-23T00:26:57.315Z,0
2018-07-23T00:27:23.458Z,0
2018-07-23T00:27:49.622Z,0
2018-07-23T00:28:15.758Z,0
2018-07-23T00:28:41.903Z,0
2018-07-23T00:29:08.046Z,0
2018-07-23T00:29:34.186Z,0
2018-07-23T00:30:00.319Z,0
2018-07-23T00:30:26.481Z,0
2018-07-23T00:30:52.650Z,0
2018-07-23T00:31:18.794Z,0
2018-07-23T00:31:44.927Z,0
2018-07-23T00:32:11.097Z,0
2018-07-23T00:32:37.266Z,0
2018-07-23T00:33:03.407Z,0
2018-07-23T00:33:29.547Z,0
2018-07-23T00:33:55.688Z,0
2018-07-23T00:34:21.853Z,0
2018-07-23T00:34:47.996Z,0
2018-07-23T00:35:14.141Z,0
2018-07-23T00:35:40.273Z,0
2018-07-23T00:36:06.416Z,0
2018-07-23T00:36:32.551Z,0
2018-07-23T00:36:58.690Z,0
2018-07-23T00:37:24.849Z,0
2018-07-23T00:37:50.977Z,0
2018-07-23T00:38:17.134Z,0
2018-07-23T00:38:43.272Z,0
2018-07-23T00:39:09.416Z,0
2018-07-23T00:39:35.554Z,0
2018-07-23T00:40:01.708Z,0
2018-07-23T00:40:27.867Z,0
2018-07-23T00:40:54.000Z,0
2018-07-23T00:41:20.137Z,0
2018-07-23T00:41:46.279Z,0
2018-07-23T00:42:12.422Z,0
2018-07-23T00:42:38.560Z,0
2018-07-23T00:43:04.694Z,0
2018-07-23T00:43:30.834Z,0
2018-07-23T00:43:56.970Z,0
2018-07-23T00:44:23.111Z,0
2018-07-23T00:44:49.312Z,0
2018-07-23T00:45:15.448Z,0
2018-07-23T00:45:41.641Z,0
2018-07-23T00:46:07.784Z,0
2018-07-23T00:46:33.942Z,0
2018-07-23T00:47:00.060Z,0
2018-07-23T00:47:26.220Z,0
2018-07-23T00:47:52.382Z,0
2018-07-23T00:48:18.520Z,0
2018-07-23T00:48:44.654Z,0
2018-07-23T00:49:10.812Z,0
2018-07-23T00:49:36.977Z,0
2018-07-23T00:50:03.117Z,0
2018-07-23T00:50:29.252Z,0
2018-07-23T00:50:55.388Z,0
2018-07-23T00:51:21.538Z,0
2018-07-23T00:51:47.675Z,0
2018-07-23T00:52:13.818Z,0
2018-07-23T00:52:39.970Z,0
2018-07-23T00:53:06.097Z,0
2018-07-23T00:53:32.229Z,0
2018-07-23T00:53:58.378Z,0
2018-07-23T00:54:24.515Z,0
2018-07-23T00:54:50.652Z,0
2018-07-23T00:55:16.785Z,0
2018-07-23T00:55:42.930Z,0
2018-07-23T00:56:09.096Z,0
2018-07-23T00:56:35.233Z,0
2018-07-23T00:57:01.368Z,0
2018-07-23T00:57:27.514Z,0
2018-07-23T00:57:53.684Z,0
2018-07-23T00:58:19.824Z,0
2018-07-23T00:58:45.964Z,0
2018-07-23T00:59:12.103Z,0
2018-07-23T00:59:38.275Z,0
2018-07-23T01:00:04.411Z,0
2018-07-23T01:00:30.556Z,0
2018-07-23T01:00:56.693Z,0
2018-07-23T01:01:22.829Z,0
2018-07-23T01:01:48.994Z,0
2018-07-23T01:02:15.136Z,0
2018-07-23T01:02:41.275Z,0
2018-07-23T01:03:07.414Z,0
2018-07-23T01:03:33.556Z,0
2018-07-23T01:03:59.693Z,0
2018-07-23T01:04:25.853Z,0
2018-07-23T01:04:51.995Z,0
2018-07-23T01:05:18.152Z,0
2018-07-23T01:05:44.316Z,0
2018-07-23T01:06:10.454Z,0
2018-07-23T01:06:36.589Z,0
2018-07-23T01:07:02.731Z,0
2018-07-23T01:07:28.871Z,0
2018-07-23T01:07:55.008Z,0
2018-07-23T01:08:21.143Z,0
2018-07-23T01:08:47.299Z,0
2018-07-23T01:09:13.471Z,0
2018-07-23T01:09:39.606Z,0
2018-07-23T01:10:05.742Z,0
2018-07-23T01:10:31.886Z,0
2018-07-23T01:10:58.029Z,0
2018-07-23T01:11:24.161Z,0
2018-07-23T01:11:50.296Z,0
2018-07-23T01:12:16.460Z,0
2018-07-23T01:12:42.596Z,0
2018-07-23T01:13:08.744Z,0
2018-07-23T01:13:34.877Z,0
2018-07-23T01:14:01.022Z,0
2018-07-23T01:14:27.568Z,0
2018-07-23T01:14:53.720Z,0
2018-07-23T01:15:19.859Z,0
2018-07-23T01:15:46.001Z,0
2018-07-23T01:16:12.159Z,0
2018-07-23T01:16:38.301Z,0
2018-07-23T01:17:04.439Z,0
2018-07-23T01:17:30.581Z,0
2018-07-23T01:17:56.718Z,0
2018-07-23T01:18:22.860Z,0
2018-07-23T01:18:49.005Z,0
2018-07-23T01:19:15.138Z,0
2018-07-23T01:19:41.286Z,0
2018-07-23T01:20:07.424Z,0
2018-07-23T01:20:33.590Z,0
2018-07-23T01:20:59.726Z,0
2018-07-23T01:21:25.897Z,0
2018-07-23T01:21:52.034Z,0
2018-07-23T01:22:18.178Z,0
2018-07-23T01:22:44.313Z,0
2018-07-23T01:23:10.495Z,0
2018-07-23T01:23:36.638Z,0
2018-07-23T01:24:02.774Z,0
2018-07-23T01:24:28.938Z,0
2018-07-23T01:24:55.078Z,0
2018-07-23T01:25:21.221Z,0
2018-07-23T01:25:47.358Z,0
2018-07-23T01:26:13.521Z,0
2018-07-23T01:26:39.649Z,0
2018-07-23T01:27:05.784Z,0
2018-07-23T01:27:31.964Z,0
2018-07-23T01:27:58.092Z,0
2018-07-23T01:28:24.235Z,0
2018-07-23T01:28:50.395Z,0
2018-07-23T01:29:16.530Z,0
2018-07-23T01:29:42.663Z,0
2018-07-23T01:30:08.824Z,0
2018-07-23T01:30:34.961Z,0
2018-07-23T01:31:01.103Z,0
2018-07-23T01:31:27.235Z,0
2018-07-23T01:31:53.382Z,0
2018-07-23T01:32:19.518Z,0
2018-07-23T01:32:45.653Z,0
2018-07-23T01:33:11.797Z,0
2018-07-23T01:33:37.961Z,0
2018-07-23T01:34:04.087Z,0
2018-07-23T01:34:30.239Z,0
2018-07-23T01:34:56.370Z,0
2018-07-23T01:35:22.529Z,0
2018-07-23T01:35:48.673Z,0
2018-07-23T01:36:14.808Z,0
2018-07-23T01:36:40.952Z,0
2018-07-23T01:37:07.086Z,0
2018-07-23T01:37:33.232Z,0
2018-07-23T01:37:59.379Z,0
2018-07-23T01:38:25.514Z,0
2018-07-23T01:38:51.657Z,0
2018-07-23T01:39:17.800Z,0
2018-07-23T01:39:43.939Z,0
2018-07-23T01:40:10.077Z,0
2018-07-23T01:40:36.215Z,0
2018-07-23T01:41:02.353Z,0
2018-07-23T01:41:28.524Z,0
2018-07-23T01:41:54.678Z,0
2018-07-23T01:42:20.816Z,0
2018-07-23T01:42:46.961Z,0
2018-07-23T01:43:13.125Z,0
2018-07-23T01:43:39.257Z,0
2018-07-23T01:44:05.400Z,0
2018-07-23T01:44:31.531Z,0
2018-07-23T01:44:57.670Z,0
2018-07-23T01:45:23.812Z,0
2018-07-23T01:45:49.964Z,0
2018-07-23T01:46:16.090Z,0
2018-07-23T01:46:42.227Z,0
2018-07-23T01:47:08.369Z,0
2018-07-23T01:47:34.503Z,0
2018-07-23T01:48:00.645Z,0
2018-07-23T01:48:26.784Z,0
2018-07-23T01:48:52.921Z,0
2018-07-23T01:49:19.061Z,0
2018-07-23T01:49:45.232Z,0
2018-07-23T01:50:11.371Z,0
2018-07-23T01:50:37.512Z,0
2018-07-23T01:51:03.646Z,0
2018-07-23T01:51:29.785Z,0
2018-07-23T01:51:55.921Z,0
2018-07-23T01:52:22.061Z,0
2018-07-23T01:52:48.192Z,0
2018-07-23T01:53:14.336Z,0
2018-07-23T01:53:40.473Z,0
2018-07-23T01:54:06.613Z,0
2018-07-23T01:54:32.756Z,0
2018-07-23T01:54:58.896Z,0
2018-07-23T01:55:25.037Z,0
2018-07-23T01:55:51.204Z,0
2018-07-23T01:56:17.342Z,0
2018-07-23T01:56:43.481Z,0
2018-07-23T01:57:09.632Z,0
2018-07-23T01:57:35.792Z,0
2018-07-23T01:58:01.929Z,0
2018-07-23T01:58:28.067Z,0
2018-07-23T01:58:54.201Z,0
2018-07-23T01:59:20.346Z,0
2018-07-23T01:59:46.478Z,0
2018-07-23T02:00:12.614Z,0
2018-07-23T02:00:38.760Z,0
2018-07-23T02:01:04.924Z,0
2018-07-23T02:01:31.072Z,0
2018-07-23T02:01:57.231Z,0
2018-07-23T02:02:23.365Z,0
2018-07-23T02:02:49.508Z,0
2018-07-23T02:03:15.652Z,0
2018-07-23T02:03:41.784Z,0
2018-07-23T02:04:07.920Z,0
2018-07-23T02:04:34.062Z,0
2018-07-23T02:05:00.198Z,0
2018-07-23T02:05:26.347Z,0
2018-07-23T02:05:52.482Z,0
2018-07-23T02:06:18.647Z,0
2018-07-23T02:06:44.794Z,0
2018-07-23T02:07:10.940Z,0
2018-07-23T02:07:37.078Z,0
2018-07-23T02:08:03.242Z,0
2018-07-23T02:08:29.373Z,0
2018-07-23T02:08:55.514Z,0
2018-07-23T02:09:21.655Z,0
2018-07-23T02:09:47.813Z,0
2018-07-23T02:10:13.980Z,0
2018-07-23T02:10:40.095Z,0
2018-07-23T02:11:06.239Z,0
2018-07-23T02:11:32.380Z,0
2018-07-23T02:11:58.515Z,0
2018-07-23T02:12:24.653Z,0
2018-07-23T02:12:50.788Z,0
2018-07-23T02:13:16.933Z,0
2018-07-23T02:13:43.100Z,0
2018-07-23T02:14:09.254Z,0
2018-07-23T02:14:36.069Z,0
2018-07-23T02:15:02.206Z,0
2018-07-23T02:15:28.347Z,0
2018-07-23T02:15:54.484Z,0
2018-07-23T02:16:20.642Z,0
2018-07-23T02:16:46.780Z,0
2018-07-23T02:17:12.916Z,0
2018-07-23T02:17:39.058Z,0
2018-07-23T02:18:05.243Z,0
2018-07-23T02:18:31.374Z,0
2018-07-23T02:18:57.513Z,0
2018-07-23T02:19:23.672Z,0
2018-07-23T02:19:49.808Z,0
2018-07-23T02:20:15.964Z,0
2018-07-23T02:20:42.088Z,0
2018-07-23T02:21:08.235Z,0
2018-07-23T02:21:34.370Z,0
2018-07-23T02:22:00.542Z,0
2018-07-23T02:22:26.667Z,0
2018-07-23T02:22:52.808Z,0
2018-07-23T02:23:18.956Z,0
2018-07-23T02:23:45.133Z,0
2018-07-23T02:24:11.263Z,0
2018-07-23T02:24:37.407Z,0
2018-07-23T02:25:03.546Z,0
2018-07-23T02:25:29.689Z,0
2018-07-23T02:25:55.831Z,0
2018-07-23T02:26:21.967Z,0
2018-07-23T02:26:48.101Z,0
2018-07-23T02:27:14.241Z,0
2018-07-23T02:27:40.384Z,0
2018-07-23T02:28:06.522Z,0
2018-07-23T02:28:32.664Z,0
2018-07-23T02:28:58.802Z,0
2018-07-23T02:29:24.940Z,0
2018-07-23T02:29:51.077Z,0
2018-07-23T02:30:17.216Z,0
2018-07-23T02:30:43.374Z,0
2018-07-23T02:31:09.538Z,0
2018-07-23T02:31:35.726Z,0
2018-07-23T02:32:01.900Z,0
2018-07-23T02:32:28.097Z,0
2018-07-23T02:32:54.281Z,0
2018-07-23T02:33:20.446Z,0
2018-07-23T02:33:46.619Z,0
2018-07-23T02:34:12.788Z,0
2018-07-23T02:34:38.947Z,0
2018-07-23T02:35:05.090Z,0
2018-07-23T02:35:31.271Z,0
2018-07-23T02:35:57.463Z,0
2018-07-23T02:36:23.673Z,0
2018-07-23T02:36:49.816Z,0
2018-07-23T02:37:15.977Z,0
2018-07-23T02:37:42.141Z,0
2018-07-23T02:38:08.280Z,0
2018-07-23T02:38:34.467Z,0
2018-07-23T02:39:00.637Z,0
2018-07-23T02:39:26.797Z,0
2018-07-23T02:39:52.966Z,0
2018-07-23T02:40:19.102Z,0
2018-07-23T02:40:45.306Z,0
2018-07-23T02:41:11.477Z,0
2018-07-23T02:41:37.655Z,0
2018-07-23T02:42:03.839Z,0
2018-07-23T02:42:30.007Z,0
2018-07-23T02:42:56.146Z,0
2018-07-23T02:43:22.307Z,0
2018-07-23T02:43:48.450Z,0
2018-07-23T02:44:14.606Z,0
2018-07-23T02:44:40.770Z,0
2018-07-23T02:45:06.920Z,0
2018-07-23T02:45:33.051Z,0
2018-07-23T02:45:59.198Z,0
2018-07-23T02:46:25.358Z,0
2018-07-23T02:46:51.524Z,0
2018-07-23T02:47:17.764Z,0
2018-07-23T02:47:43.962Z,0
2018-07-23T02:48:10.097Z,0
2018-07-23T02:48:36.235Z,0
2018-07-23T02:49:02.423Z,0
2018-07-23T02:49:28.586Z,0
2018-07-23T02:49:54.771Z,0
2018-07-23T02:50:20.909Z,0
2018-07-23T02:50:47.046Z,0
2018-07-23T02:51:13.205Z,0
2018-07-23T02:51:39.343Z,0
2018-07-23T02:52:05.510Z,0
2018-07-23T02:52:31.670Z,0
2018-07-23T02:52:57.810Z,0
2018-07-23T02:53:23.968Z,0
2018-07-23T02:53:50.099Z,0
2018-07-23T02:54:16.234Z,0
2018-07-23T02:54:42.381Z,0
2018-07-23T02:55:08.546Z,0
2018-07-23T02:55:34.680Z,0
2018-07-23T02:56:00.875Z,0
2018-07-23T02:56:27.045Z,0
2018-07-23T02:56:53.181Z,0
2018-07-23T02:57:19.390Z,0
2018-07-23T02:57:45.531Z,0
2018-07-23T02:58:11.671Z,0
2018-07-23T02:58:37.833Z,0
2018-07-23T02:59:03.978Z,0
2018-07-23T02:59:30.118Z,0
2018-07-23T02:59:56.251Z,0
2018-07-23T03:00:22.418Z,0
2018-07-23T03:00:48.559Z,0
2018-07-23T03:01:14.710Z,0
2018-07-23T03:01:40.839Z,0
2018-07-23T03:02:07.001Z,0
2018-07-23T03:02:33.138Z,0
2018-07-23T03:02:59.301Z,0
2018-07-23T03:03:25.434Z,0
2018-07-23T03:03:51.626Z,0
2018-07-23T03:04:17.789Z,0
2018-07-23T03:04:43.961Z,0
2018-07-23T03:05:10.114Z,0
2018-07-23T03:05:36.254Z,0
2018-07-23T03:06:02.415Z,0
2018-07-23T03:06:28.582Z,0
2018-07-23T03:06:54.718Z,0
2018-07-23T03:07:20.910Z,0
2018-07-23T03:07:47.065Z,0
2018-07-23T03:08:13.260Z,0
2018-07-23T03:08:39.421Z,0
2018-07-23T03:09:05.570Z,0
2018-07-23T03:09:31.724Z,0
2018-07-23T03:09:57.886Z,0
2018-07-23T03:10:24.052Z,0
2018-07-23T03:10:50.265Z,0
2018-07-23T03:11:16.412Z,0
2018-07-23T03:11:42.542Z,0
2018-07-23T03:12:08.713Z,0
2018-07-23T03:12:34.849Z,0
2018-07-23T03:13:00.987Z,0
2018-07-23T03:13:27.128Z,0
2018-07-23T03:13:53.266Z,0
2018-07-23T03:14:19.413Z,0
2018-07-23T03:14:45.806Z,0
2018-07-23T03:15:12.012Z,0
2018-07-23T03:15:38.301Z,0
2018-07-23T03:16:04.667Z,0
2018-07-23T03:16:30.925Z,0
2018-07-23T03:16:57.157Z,0
2018-07-23T03:17:23.484Z,0
2018-07-23T03:17:49.707Z,0
2018-07-23T03:18:15.874Z,0
2018-07-23T03:18:42.061Z,0
2018-07-23T03:19:08.255Z,0
2018-07-23T03:19:34.415Z,0
2018-07-23T03:20:00.556Z,0
2018-07-23T03:20:26.741Z,0
2018-07-23T03:20:52.893Z,0
2018-07-23T03:21:19.032Z,0
2018-07-23T03:21:45.251Z,0
2018-07-23T03:22:11.327Z,0
2018-07-23T03:22:37.494Z,0
2018-07-23T03:23:03.659Z,0
2018-07-23T03:23:29.847Z,0
2018-07-23T03:23:56.038Z,0
2018-07-23T03:24:22.178Z,0
2018-07-23T03:24:48.317Z,0
2018-07-23T03:25:14.474Z,0
2018-07-23T03:25:40.618Z,0
2018-07-23T03:26:06.754Z,0
2018-07-23T03:26:32.899Z,0
2018-07-23T03:26:59.094Z,0
2018-07-23T03:27:25.239Z,0
2018-07-23T03:27:51.398Z,0
2018-07-23T03:28:17.535Z,0
2018-07-23T03:28:43.672Z,0
2018-07-23T03:29:09.838Z,5
2018-07-23T03:29:35.964Z,5
2018-07-23T03:30:02.119Z,5
2018-07-23T03:30:28.257Z,5
2018-07-23T03:30:54.445Z,5
2018-07-23T03:31:20.609Z,5
2018-07-23T03:31:46.794Z,5
2018-07-23T03:32:12.937Z,5
2018-07-23T03:32:39.090Z,5
2018-07-23T03:33:05.253Z,5
2018-07-23T03:33:31.389Z,5
2018-07-23T03:33:57.539Z,5
2018-07-23T03:34:23.701Z,5
2018-07-23T03:34:49.846Z,5
2018-07-23T03:35:15.985Z,5
2018-07-23T03:35:42.116Z,5
2018-07-23T03:36:08.255Z,5
2018-07-23T03:36:34.410Z,5
2018-07-23T03:37:00.550Z,5
2018-07-23T03:37:26.692Z,5
2018-07-23T03:37:52.833Z,5
2018-07-23T03:38:18.972Z,5
2018-07-23T03:38:45.108Z,10
2018-07-23T03:39:11.258Z,10
2018-07-23T03:39:37.420Z,10
2018-07-23T03:40:03.558Z,10
2018-07-23T03:40:29.698Z,10
2018-07-23T03:40:55.837Z,10
2018-07-23T03:41:21.999Z,10
2018-07-23T03:41:48.144Z,10
2018-07-23T03:42:14.298Z,10
2018-07-23T03:42:40.441Z,10
2018-07-23T03:43:06.580Z,10
2018-07-23T03:43:32.715Z,10
2018-07-23T03:43:58.856Z,10
2018-07-23T03:44:24.995Z,10
2018-07-23T03:44:51.134Z,10
2018-07-23T03:45:17.290Z,15
2018-07-23T03:45:43.433Z,15
2018-07-23T03:46:09.569Z,15
2018-07-23T03:46:35.711Z,15
2018-07-23T03:47:01.853Z,15
2018-07-23T03:47:27.997Z,15
2018-07-23T03:47:54.140Z,15
2018-07-23T03:48:20.277Z,15
2018-07-23T03:48:46.423Z,15
2018-07-23T03:49:12.564Z,15
2018-07-23T03:49:38.695Z,15
2018-07-23T03:50:04.841Z,20
2018-07-23T03:50:30.984Z,20
2018-07-23T03:50:57.122Z,20
2018-07-23T03:51:23.285Z,20
2018-07-23T03:51:49.426Z,20
2018-07-23T03:52:15.592Z,20
2018-07-23T03:52:41.726Z,20
2018-07-23T03:53:07.873Z,20
2018-07-23T03:53:34.009Z,20
2018-07-23T03:54:00.145Z,25
2018-07-23T03:54:26.283Z,25
2018-07-23T03:54:52.436Z,25
2018-07-23T03:55:18.594Z,25
2018-07-23T03:55:44.728Z,25
2018-07-23T03:56:10.889Z,25
2018-07-23T03:56:37.020Z,25
2018-07-23T03:57:03.161Z,25
2018-07-23T03:57:29.304Z,30
2018-07-23T03:57:55.446Z,30
2018-07-23T03:58:21.587Z,30
2018-07-23T03:58:47.726Z,30
2018-07-23T03:59:13.895Z,30
2018-07-23T03:59:40.005Z,30
2018-07-23T04:00:06.175Z,30
2018-07-23T04:00:32.327Z,35
2018-07-23T04:00:58.461Z,35
2018-07-23T04:01:24.602Z,35
2018-07-23T04:01:50.742Z,35
2018-07-23T04:02:16.880Z,35
2018-07-23T04:02:43.020Z,35
2018-07-23T04:03:09.158Z,35
2018-07-23T04:03:35.405Z,40
2018-07-23T04:04:01.430Z,40
2018-07-23T04:04:27.604Z,40
2018-07-23T04:04:53.771Z,40
2018-07-23T04:05:19.934Z,40
2018-07-23T04:05:46.076Z,40
2018-07-23T04:06:12.241Z,40
2018-07-23T04:06:38.376Z,45
2018-07-23T04:07:04.513Z,45
2018-07-23T04:07:30.656Z,45
2018-07-23T04:07:56.796Z,45
2018-07-23T04:08:22.958Z,45
2018-07-23T04:08:49.098Z,45
2018-07-23T04:09:15.238Z,50
2018-07-23T04:09:41.367Z,50
2018-07-23T04:10:07.674Z,50
2018-07-23T04:10:33.662Z,50
2018-07-23T04:10:59.834Z,50
2018-07-23T04:11:25.997Z,50
2018-07-23T04:11:52.136Z,50
2018-07-23T04:12:18.278Z,55
2018-07-23T04:12:44.451Z,55
2018-07-23T04:13:10.592Z,55
2018-07-23T04:13:36.732Z,55
2018-07-23T04:14:02.867Z,55
2018-07-23T04:14:29.027Z,55
2018-07-23T04:14:55.164Z,55
2018-07-23T04:15:21.309Z,60
2018-07-23T04:15:47.451Z,60
2018-07-23T04:16:13.593Z,60
2018-07-23T04:16:39.732Z,60
2018-07-23T04:17:05.866Z,60
2018-07-23T04:17:32.119Z,60
2018-07-23T04:17:58.190Z,60
2018-07-23T04:18:24.417Z,65
2018-07-23T04:18:50.559Z,65
2018-07-23T04:19:16.698Z,65
2018-07-23T04:19:42.833Z,65
2018-07-23T04:20:08.975Z,65
2018-07-23T04:20:35.113Z,70
2018-07-23T04:21:01.241Z,70
2018-07-23T04:21:27.383Z,70
2018-07-23T04:21:53.537Z,70
2018-07-23T04:22:19.676Z,70
2018-07-23T04:22:45.822Z,70
2018-07-23T04:23:11.972Z,75
2018-07-23T04:23:38.093Z,75
2018-07-23T04:24:04.268Z,75
2018-07-23T04:24:30.408Z,75
2018-07-23T04:24:56.542Z,75
2018-07-23T04:25:22.699Z,75
2018-07-23T04:25:48.841Z,80
2018-07-23T04:26:14.988Z,80
2018-07-23T04:26:41.122Z,80
2018-07-23T04:27:07.267Z,80
2018-07-23T04:27:33.429Z,80
2018-07-23T04:27:59.562Z,80
2018-07-23T04:28:25.705Z,85
2018-07-23T04:28:51.846Z,85
2018-07-23T04:29:17.988Z,85
2018-07-23T04:29:44.121Z,85
2018-07-23T04:30:10.269Z,85
2018-07-23T04:30:36.410Z,85
2018-07-23T04:31:02.550Z,90
2018-07-23T04:31:28.686Z,90
2018-07-23T04:31:54.819Z,90
2018-07-23T04:32:20.962Z,90
2018-07-23T04:32:47.099Z,90
2018-07-23T04:33:13.238Z,90
2018-07-23T04:33:39.376Z,95
2018-07-23T04:34:05.547Z,95
2018-07-23T04:34:31.679Z,95
2018-07-23T04:34:57.821Z,95
2018-07-23T04:35:23.967Z,95
2018-07-23T04:35:50.104Z,100
2018-07-23T04:36:16.265Z,100
2018-07-23T04:36:42.408Z,100
2018-07-23T04:37:08.570Z,100
2018-07-23T04:37:34.734Z,100
2018-07-23T04:38:00.956Z,105
2018-07-23T04:38:27.032Z,105
2018-07-23T04:38:53.166Z,105
2018-07-23T04:39:19.301Z,105
2018-07-23T04:39:45.444Z,110
2018-07-23T04:40:11.591Z,110
2018-07-23T04:40:37.755Z,110
2018-07-23T04:41:03.883Z,110
2018-07-23T04:41:30.025Z,110
2018-07-23T04:41:56.178Z,110
2018-07-23T04:42:22.361Z,110
2018-07-23T04:42:48.473Z,110
2018-07-23T04:43:14.609Z,115
2018-07-23T04:43:40.785Z,115
2018-07-23T04:44:06.943Z,115
2018-07-23T04:44:33.082Z,115
2018-07-23T04:44:59.228Z,115
2018-07-23T04:45:25.361Z,120
2018-07-23T04:45:51.511Z,120
2018-07-23T04:46:17.671Z,120
2018-07-23T04:46:43.811Z,120
2018-07-23T04:47:09.968Z,120
2018-07-23T04:47:36.083Z,115
2018-07-23T04:48:02.224Z,120
2018-07-23T04:48:28.362Z,120
2018-07-23T04:48:54.513Z,120
2018-07-23T04:49:20.698Z,120
2018-07-23T04:49:46.791Z,120
2018-07-23T04:50:12.934Z,125
2018-07-23T04:50:39.122Z,125
2018-07-23T04:51:05.248Z,130
2018-07-23T04:51:31.387Z,130
2018-07-23T04:51:57.525Z,130
2018-07-23T04:52:23.668Z,130
2018-07-23T04:52:49.808Z,125
2018-07-23T04:53:15.971Z,120
2018-07-23T04:53:42.083Z,120
2018-07-23T04:54:08.231Z,120
2018-07-23T04:54:34.389Z,120
2018-07-23T04:55:00.527Z,120
2018-07-23T04:55:26.718Z,120
2018-07-23T04:55:52.859Z,120
2018-07-23T04:56:19.002Z,125
2018-07-23T04:56:45.221Z,125
2018-07-23T04:57:11.273Z,125
2018-07-23T04:57:37.409Z,125
2018-07-23T04:58:03.552Z,125
2018-07-23T04:58:29.697Z,130
2018-07-23T04:58:55.857Z,130
2018-07-23T04:59:22.018Z,130
2018-07-23T04:59:48.156Z,135
2018-07-23T05:00:14.299Z,130
2018-07-23T05:00:40.459Z,130
2018-07-23T05:01:06.602Z,135
2018-07-23T05:01:32.761Z,135
2018-07-23T05:01:58.904Z,135
2018-07-23T05:02:25.042Z,135
2018-07-23T05:02:51.186Z,140
2018-07-23T05:03:17.318Z,140
2018-07-23T05:03:43.456Z,140
2018-07-23T05:04:09.594Z,145
2018-07-23T05:04:35.740Z,140
2018-07-23T05:05:01.900Z,140
2018-07-23T05:05:28.034Z,140
2018-07-23T05:05:54.173Z,135
2018-07-23T05:06:20.319Z,135
2018-07-23T05:06:46.455Z,135
2018-07-23T05:07:12.594Z,135
2018-07-23T05:07:38.741Z,135
2018-07-23T05:08:04.882Z,135
2018-07-23T05:08:31.018Z,140
2018-07-23T05:08:57.159Z,140
2018-07-23T05:09:23.295Z,140
2018-07-23T05:09:49.455Z,145
2018-07-23T05:10:15.597Z,145
2018-07-23T05:10:41.751Z,145
2018-07-23T05:11:07.884Z,150
2018-07-23T05:11:34.025Z,155
2018-07-23T05:12:00.164Z,155
2018-07-23T05:12:26.309Z,160
2018-07-23T05:12:52.446Z,155
2018-07-23T05:13:18.667Z,160
2018-07-23T05:13:44.810Z,165
2018-07-23T05:14:10.944Z,165
2018-07-23T05:14:37.086Z,165
2018-07-23T05:15:03.232Z,170
2018-07-23T05:15:29.373Z,170
2018-07-23T05:15:56.278Z,180
2018-07-23T05:16:22.404Z,180
2018-07-23T05:16:48.570Z,180
2018-07-23T05:17:14.721Z,180
2018-07-23T05:17:40.851Z,180
2018-07-23T05:18:06.983Z,180
2018-07-23T05:18:33.125Z,180
2018-07-23T05:18:59.278Z,180
2018-07-23T05:19:25.439Z,185
2018-07-23T05:19:51.556Z,185
2018-07-23T05:20:17.696Z,185
2018-07-23T05:20:43.840Z,185
2018-07-23T05:21:09.979Z,185
2018-07-23T05:21:36.148Z,185
2018-07-23T05:22:02.313Z,190
2018-07-23T05:22:28.472Z,185
2018-07-23T05:22:54.618Z,185
2018-07-23T05:23:20.752Z,185
2018-07-23T05:23:46.950Z,185
2018-07-23T05:24:13.028Z,185
2018-07-23T05:24:39.273Z,185
2018-07-23T05:25:05.357Z,190
2018-07-23T05:25:31.526Z,190
2018-07-23T05:25:57.665Z,190
2018-07-23T05:26:23.810Z,190
2018-07-23T05:26:49.945Z,190
2018-07-23T05:27:16.083Z,190
2018-07-23T05:27:42.219Z,190
2018-07-23T05:28:08.363Z,190
2018-07-23T05:28:34.521Z,195
2018-07-23T05:29:00.663Z,195
2018-07-23T05:29:26.826Z,195
2018-07-23T05:29:52.967Z,195
2018-07-23T05:30:19.132Z,195
2018-07-23T05:30:45.288Z,195
2018-07-23T05:31:11.431Z,200
2018-07-23T05:31:37.571Z,200
2018-07-23T05:32:03.731Z,200
2018-07-23T05:32:29.878Z,200
2018-07-23T05:32:56.014Z,200
2018-07-23T05:33:22.149Z,200
2018-07-23T05:33:48.309Z,200
2018-07-23T05:34:14.451Z,200
2018-07-23T05:34:40.593Z,200
2018-07-23T05:35:06.738Z,205
2018-07-23T05:35:32.879Z,205
2018-07-23T05:35:59.014Z,205
2018-07-23T05:36:25.161Z,205
2018-07-23T05:36:51.299Z,205
2018-07-23T05:37:17.444Z,205
2018-07-23T05:37:43.583Z,210
2018-07-23T05:38:09.746Z,210
2018-07-23T05:38:35.926Z,210
2018-07-23T05:39:02.024Z,215
2018-07-23T05:39:28.161Z,210
2018-07-23T05:39:54.304Z,210
2018-07-23T05:40:20.479Z,210
2018-07-23T05:40:46.602Z,210
2018-07-23T05:41:12.786Z,215
2018-07-23T05:41:38.936Z,215
2018-07-23T05:42:05.064Z,215
2018-07-23T05:42:31.204Z,215
2018-07-23T05:42:57.341Z,215
2018-07-23T05:43:23.500Z,215
2018-07-23T05:43:49.642Z,215
2018-07-23T05:44:15.821Z,215
2018-07-23T05:44:41.968Z,215
2018-07-23T05:45:08.130Z,215
2018-07-23T05:45:34.311Z,215
2018-07-23T05:46:00.475Z,215
2018-07-23T05:46:26.620Z,215
2018-07-23T05:46:52.756Z,215
2018-07-23T05:47:18.897Z,215
2018-07-23T05:47:45.024Z,215
2018-07-23T05:48:11.164Z,220
2018-07-23T05:48:37.304Z,220
2018-07-23T05:49:03.446Z,220
2018-07-23T05:49:29.594Z,220
2018-07-23T05:49:55.757Z,220
2018-07-23T05:50:21.894Z,220
2018-07-23T05:50:48.025Z,220
2018-07-23T05:51:14.169Z,220
2018-07-23T05:51:40.306Z,220
2018-07-23T05:52:06.445Z,220
2018-07-23T05:52:32.585Z,220
2018-07-23T05:52:58.724Z,225
2018-07-23T05:53:24.866Z,225
2018-07-23T05:53:51.007Z,225
2018-07-23T05:54:17.200Z,225
2018-07-23T05:54:43.336Z,225
2018-07-23T05:55:09.477Z,225
2018-07-23T05:55:35.668Z,230
2018-07-23T05:56:01.848Z,230
2018-07-23T05:56:28.004Z,230
2018-07-23T05:56:54.148Z,230
2018-07-23T05:57:20.278Z,230
2018-07-23T05:57:46.428Z,230
2018-07-23T05:58:12.596Z,230
2018-07-23T05:58:38.735Z,230
2018-07-23T05:59:04.875Z,230
2018-07-23T05:59:31.020Z,230
2018-07-23T05:59:57.155Z,230
2018-07-23T06:00:23.304Z,235
2018-07-23T06:00:49.447Z,235
2018-07-23T06:01:15.581Z,235
2018-07-23T06:01:41.754Z,235
2018-07-23T06:02:07.885Z,235
2018-07-23T06:02:34.032Z,235
2018-07-23T06:03:00.168Z,240
2018-07-23T06:03:26.297Z,240
2018-07-23T06:03:52.434Z,240
2018-07-23T06:04:18.573Z,240
2018-07-23T06:04:44.732Z,240
2018-07-23T06:05:10.874Z,240
2018-07-23T06:05:37.013Z,240
2018-07-23T06:06:03.152Z,245
2018-07-23T06:06:29.305Z,245
2018-07-23T06:06:55.649Z,245
2018-07-23T06:07:21.631Z,245
2018-07-23T06:07:47.768Z,245
2018-07-23T06:08:13.907Z,245
2018-07-23T06:08:40.044Z,245
2018-07-23T06:09:06.180Z,250
2018-07-23T06:09:32.317Z,250
2018-07-23T06:09:58.485Z,250
2018-07-23T06:10:24.623Z,250
2018-07-23T06:10:50.790Z,250
2018-07-23T06:11:16.924Z,250
2018-07-23T06:11:43.067Z,250
2018-07-23T06:12:09.205Z,250
2018-07-23T06:12:35.371Z,250
2018-07-23T06:13:01.520Z,255
2018-07-23T06:13:27.675Z,255
2018-07-23T06:13:53.787Z,255
2018-07-23T06:14:19.920Z,255
2018-07-23T06:14:46.064Z,255
2018-07-23T06:15:12.216Z,255
2018-07-23T06:15:38.385Z,255
2018-07-23T06:16:04.867Z,255
2018-07-23T06:16:31.005Z,255
2018-07-23T06:16:57.143Z,255
2018-07-23T06:17:23.289Z,255